Time;durP1;ratioP1;P1;durP2;ratioP2;P2;SDS_P1;SDS_P2;PMS_P1;PMS_P2;Temp;Humidity;BMP_temperature;BMP_pressure;BME280_temperature;BME280_humidity;BME280_pressure;Samples;Min_cycle;Max_cycle;Signal;HPM_P1;HPM_P2
2023/07/06 00:00:11;;;;;;;;;7.20;6.80;;;;;23.96;100.00;98600.63;6017599;29;96619;-61
2023/07/06 00:03:15;;;;;;;;;9.20;9.00;;;;;23.90;100.00;98616.47;6019736;28;97350;-62
2023/07/06 00:06:19;;;;;;;;;9.00;8.00;;;;;23.85;100.00;98605.59;6003277;29;98657;-62
2023/07/06 00:09:22;;;;;;;;;7.20;7.20;;;;;23.77;100.00;98606.34;6005311;29;96422;-62
2023/07/06 00:12:25;;;;;;;;;10.00;8.00;;;;;23.73;100.00;98608.13;5995712;29;96693;-61
2023/07/06 00:15:31;;;;;;;;;8.00;8.00;;;;;23.71;100.00;98607.59;6002819;29;96345;-61
2023/07/06 00:18:34;;;;;;;;;8.50;8.25;;;;;23.63;100.00;98608.38;6011989;29;97280;-61
2023/07/06 00:21:37;;;;;;;;;7.00;7.00;;;;;23.54;100.00;98602.81;6013307;29;96544;-61
2023/07/06 00:24:42;;;;;;;;;7.33;7.33;;;;;23.51;100.00;98608.13;6012667;29;96451;-62
2023/07/06 00:27:45;;;;;;;;;8.00;8.00;;;;;23.32;100.00;98602.78;6016902;29;97227;-62
2023/07/06 00:30:55;;;;;;;;;9.00;8.40;;;;;23.18;100.00;98602.00;6020363;29;96587;-61
2023/07/06 00:34:03;;;;;;;;;7.50;7.50;;;;;22.94;100.00;98602.28;6002453;29;96559;-61
2023/07/06 00:37:07;;;;;;;;;10.00;8.00;;;;;22.92;100.00;98606.47;6007294;29;96449;-61
2023/07/06 00:40:13;;;;;;;;;7.40;6.40;;;;;22.85;100.00;98610.47;6009706;29;96602;-62
2023/07/06 00:43:20;;;;;;;;;7.00;7.00;;;;;22.75;100.00;98613.41;6013741;29;96652;-61
2023/07/06 00:46:29;;;;;;;;;9.80;8.80;;;;;22.63;100.00;98615.00;6007059;29;97216;-61
2023/07/06 00:49:33;;;;;;;;;10.00;10.00;;;;;22.64;100.00;98620.22;6015941;29;96738;-61
2023/07/06 00:52:42;;;;;;;;;9.00;7.60;;;;;22.58;100.00;98624.19;6009865;28;96389;-61
2023/07/06 00:55:46;;;;;;;;;12.00;10.80;;;;;22.48;100.00;98610.66;6002812;28;96662;-62
2023/07/06 00:58:51;;;;;;;;;8.00;7.00;;;;;22.60;100.00;98621.13;6012533;29;97379;-62
2023/07/06 01:01:59;;;;;;;;;10.00;10.00;;;;;22.51;100.00;98628.47;5997209;29;98531;-62
2023/07/06 01:05:04;;;;;;;;;14.00;11.00;;;;;22.53;100.00;98631.75;6024546;28;96513;-62
2023/07/06 01:08:12;;;;;;;;;9.25;9.00;;;;;22.54;100.00;98627.84;6016705;29;96895;-61
2023/07/06 01:11:16;;;;;;;;;9.00;8.00;;;;;22.41;100.00;98635.81;6017992;29;96696;-61
2023/07/06 01:14:19;;;;;;;;;9.60;8.00;;;;;22.27;100.00;98614.94;6018774;29;96579;-61
2023/07/06 01:17:33;;;;;;;;;11.40;9.00;;;;;22.30;100.00;98622.56;6013958;29;96504;-61
2023/07/06 01:20:45;;;;;;;;;11.00;10.00;;;;;22.37;100.00;98625.72;6007699;29;96398;-61
2023/07/06 01:24:18;;;;;;;;;8.00;7.20;;;;;22.28;100.00;98627.56;5996502;29;96147;-61
2023/07/06 01:27:38;;;;;;;;;10.75;10.00;;;;;22.31;100.00;98629.69;6017744;29;96394;-61
2023/07/06 01:31:06;;;;;;;;;9.50;8.00;;;;;22.27;100.00;98623.19;6011426;29;96407;-61
2023/07/06 01:34:20;;;;;;;;;8.00;8.00;;;;;22.18;100.00;98622.25;6012810;29;98138;-61
2023/07/06 01:37:27;;;;;;;;;8.00;7.00;;;;;22.07;100.00;98609.84;5999920;29;96457;-61
2023/07/06 01:40:31;;;;;;;;;8.60;7.60;;;;;22.10;100.00;98620.19;6020633;28;98504;-61
2023/07/06 01:43:35;;;;;;;;;9.00;8.00;;;;;22.12;100.00;98632.53;6017970;29;96350;-61
2023/07/06 01:46:39;;;;;;;;;11.20;9.20;;;;;22.13;100.00;98627.84;6025448;29;96442;-61
2023/07/06 01:49:44;;;;;;;;;8.00;7.00;;;;;22.04;100.00;98623.03;6009513;29;97269;-61
2023/07/06 01:53:01;;;;;;;;;11.00;10.00;;;;;22.09;100.00;98630.38;6025478;29;96243;-61
2023/07/06 01:56:08;;;;;;;;;9.20;8.00;;;;;22.12;100.00;98626.22;6009877;29;97658;-61
2023/07/06 01:59:17;;;;;;;;;9.00;7.00;;;;;22.06;100.00;98630.97;6024732;29;96980;-61
2023/07/06 02:02:22;;;;;;;;;8.50;8.50;;;;;22.06;100.00;98633.72;6007069;29;98366;-62
2023/07/06 02:05:28;;;;;;;;;8.00;7.00;;;;;22.04;100.00;98634.03;5994850;29;96639;-61
2023/07/06 02:08:31;;;;;;;;;7.00;6.60;;;;;22.06;100.00;98625.50;6012002;29;97662;-61
2023/07/06 02:11:35;;;;;;;;;10.00;8.40;;;;;22.04;100.00;98634.03;6006673;29;96892;-61
2023/07/06 02:14:39;;;;;;;;;9.00;8.00;;;;;22.02;100.00;98640.94;6025648;29;97142;-61
2023/07/06 02:17:42;;;;;;;;;7.80;6.00;;;;;22.03;100.00;98643.41;6007487;29;96761;-61
2023/07/06 02:20:46;;;;;;;;;9.00;7.80;;;;;22.01;100.00;98640.13;6025081;29;96960;-61
2023/07/06 02:23:50;;;;;;;;;9.75;9.50;;;;;22.08;100.00;98652.66;6020599;28;97197;-61
2023/07/06 02:26:54;;;;;;;;;9.00;8.00;;;;;22.07;100.00;98653.75;6023080;29;96505;-61
2023/07/06 02:29:57;;;;;;;;;7.00;6.00;;;;;21.99;100.00;98649.78;6007971;29;97131;-61
2023/07/06 02:33:01;;;;;;;;;9.00;9.00;;;;;21.88;100.00;98657.34;6024560;28;97260;-61
2023/07/06 02:36:06;;;;;;;;;10.75;8.00;;;;;21.75;100.00;98657.28;6024156;29;96808;-60
2023/07/06 02:39:09;;;;;;;;;8.00;6.60;;;;;21.73;100.00;98654.03;6022238;29;96934;-61
2023/07/06 02:42:14;;;;;;;;;8.25;7.25;;;;;21.82;100.00;98664.03;6009204;29;97691;-61
2023/07/06 02:45:18;;;;;;;;;8.00;7.00;;;;;21.78;100.00;98667.69;6015841;29;96343;-61
2023/07/06 02:48:21;;;;;;;;;7.00;7.00;;;;;21.85;100.00;98670.84;6015763;29;96694;-61
2023/07/06 02:51:25;;;;;;;;;9.00;8.00;;;;;21.78;100.00;98674.00;6007594;29;96492;-61
2023/07/06 02:54:29;;;;;;;;;10.80;8.80;;;;;21.70;100.00;98660.94;6011312;29;97816;-61
2023/07/06 02:57:32;;;;;;;;;11.00;11.00;;;;;21.83;100.00;98687.63;6018229;29;97292;-61
2023/07/06 03:00:35;;;;;;;;;8.00;8.00;;;;;21.78;100.00;98687.72;6020898;28;97345;-61
2023/07/06 03:03:38;;;;;;;;;11.00;10.00;;;;;21.68;100.00;98687.06;6019907;29;96707;-62
2023/07/06 03:06:43;;;;;;;;;9.00;9.00;;;;;21.66;100.00;98686.53;6021327;29;97041;-61
2023/07/06 03:09:46;;;;;;;;;9.00;9.00;;;;;21.68;100.00;98698.03;6020662;29;96317;-61
2023/07/06 03:12:50;;;;;;;;;7.40;7.00;;;;;21.57;100.00;98700.13;6004342;29;97383;-61
2023/07/06 03:15:53;;;;;;;;;11.20;10.80;;;;;21.54;100.00;98695.22;6019463;28;97861;-61
2023/07/06 03:18:57;;;;;;;;;10.00;9.40;;;;;21.44;100.00;98700.88;6017156;29;96556;-61
2023/07/06 03:22:02;;;;;;;;;8.00;7.67;;;;;21.50;100.00;98705.97;6020310;29;97229;-61
2023/07/06 03:25:08;;;;;;;;;9.00;8.00;;;;;21.41;100.00;98705.00;6014764;29;97572;-61
2023/07/06 03:28:12;;;;;;;;;9.00;8.40;;;;;21.38;100.00;98705.59;6017890;29;97654;-61
2023/07/06 03:31:15;;;;;;;;;9.00;8.80;;;;;21.33;100.00;98711.16;6020385;28;97298;-61
2023/07/06 03:34:19;;;;;;;;;10.25;9.75;;;;;21.37;100.00;98720.44;6008433;29;97014;-61
2023/07/06 03:37:24;;;;;;;;;11.00;10.00;;;;;21.13;100.00;98704.03;6009088;29;96895;-61
2023/07/06 03:40:29;;;;;;;;;8.00;8.00;;;;;21.30;100.00;98724.66;6012904;28;96947;-61
2023/07/06 03:43:34;;;;;;;;;11.00;9.00;;;;;21.21;100.00;98731.91;6015160;28;97198;-61
2023/07/06 03:46:37;;;;;;;;;9.60;9.00;;;;;21.18;100.00;98733.31;6016040;28;96463;-61
2023/07/06 03:49:41;;;;;;;;;9.00;9.00;;;;;21.28;100.00;98729.59;6014662;28;96945;-61
2023/07/06 03:52:46;;;;;;;;;9.00;9.00;;;;;21.32;100.00;98733.38;6017323;28;96786;-61
2023/07/06 03:55:53;;;;;;;;;8.60;8.00;;;;;21.40;100.00;98740.97;6019762;28;97557;-61
2023/07/06 03:58:57;;;;;;;;;9.00;8.40;;;;;21.58;100.00;98742.91;6011972;29;96950;-61
2023/07/06 04:02:00;;;;;;;;;8.00;8.00;;;;;21.55;100.00;98744.28;6022798;28;97711;-61
2023/07/06 04:05:04;;;;;;;;;7.00;7.00;;;;;21.44;100.00;98714.59;6019040;28;96912;-61
2023/07/06 04:08:12;;;;;;;;;9.00;9.00;;;;;21.76;100.00;98750.28;6024030;28;96433;-61
2023/07/06 04:11:15;;;;;;;;;8.40;7.00;;;;;21.86;100.00;98760.31;6015783;28;97098;-61
2023/07/06 04:14:21;;;;;;;;;9.75;8.50;;;;;21.97;100.00;98753.56;6011005;28;96613;-61
2023/07/06 04:17:25;;;;;;;;;9.00;9.00;;;;;22.00;100.00;98752.97;6018357;29;96864;-61
2023/07/06 04:20:30;;;;;;;;;7.00;6.75;;;;;22.16;100.00;98770.81;6014180;28;96349;-61
2023/07/06 04:23:35;;;;;;;;;9.00;7.00;;;;;22.29;100.00;98775.53;6018349;28;96482;-61
2023/07/06 04:26:40;;;;;;;;;10.00;9.00;;;;;22.38;100.00;98778.44;6018074;29;96925;-61
2023/07/06 04:29:45;;;;;;;;;8.20;7.00;;;;;22.38;100.00;98781.97;6003816;28;98984;-61
2023/07/06 04:32:49;;;;;;;;;7.60;7.00;;;;;22.48;100.00;98792.78;6010370;29;97345;-61
2023/07/06 04:35:53;;;;;;;;;10.00;9.00;;;;;22.63;100.00;98790.88;6015870;28;97075;-61
2023/07/06 04:38:58;;;;;;;;;8.00;7.40;;;;;22.83;100.00;98787.78;6017305;28;96658;-61
2023/07/06 04:42:03;;;;;;;;;8.00;7.40;;;;;22.93;100.00;98786.78;6017923;29;97614;-61
2023/07/06 04:45:09;;;;;;;;;7.00;7.00;;;;;23.11;100.00;98783.94;6017192;29;99012;-61
2023/07/06 04:48:12;;;;;;;;;8.00;7.40;;;;;23.26;100.00;98793.81;6014985;28;96741;-61
2023/07/06 04:51:18;;;;;;;;;7.20;7.00;;;;;23.46;100.00;98798.09;6011859;29;96705;-61
2023/07/06 04:54:22;;;;;;;;;11.00;8.00;;;;;23.60;100.00;98805.19;6001494;28;96749;-61
2023/07/06 04:57:26;;;;;;;;;8.40;7.00;;;;;23.70;100.00;98791.22;6018587;29;96494;-61
2023/07/06 05:00:31;;;;;;;;;9.00;8.40;;;;;23.77;100.00;98801.81;6018297;29;96426;-62
2023/07/06 05:03:35;;;;;;;;;8.00;7.00;;;;;24.03;100.00;98810.31;6013288;28;99074;-62
2023/07/06 05:06:39;;;;;;;;;8.00;7.60;;;;;24.32;100.00;98816.22;6032385;28;96642;-61
2023/07/06 05:09:44;;;;;;;;;7.00;6.00;;;;;24.42;100.00;98813.22;6012268;28;96854;-61
2023/07/06 05:12:47;;;;;;;;;8.00;8.00;;;;;24.58;100.00;98810.91;6017878;29;97034;-62
2023/07/06 05:15:52;;;;;;;;;7.00;6.00;;;;;24.80;100.00;98810.84;6017632;28;96576;-62
2023/07/06 05:18:55;;;;;;;;;10.00;10.00;;;;;24.87;100.00;98826.97;6016330;29;97038;-62
2023/07/06 05:21:58;;;;;;;;;9.00;8.00;;;;;24.72;100.00;98833.69;6018885;29;97234;-61
2023/07/06 05:25:03;;;;;;;;;10.40;9.40;;;;;24.76;100.00;98850.41;6018139;29;96458;-62
2023/07/06 05:28:06;;;;;;;;;9.00;8.60;;;;;24.48;100.00;98858.78;6012200;29;98520;-61
2023/07/06 05:31:11;;;;;;;;;7.40;6.00;;;;;24.44;100.00;98859.72;6016314;29;96582;-62
2023/07/06 05:34:14;;;;;;;;;9.00;9.00;;;;;24.28;100.00;98851.06;6008739;29;96507;-61
2023/07/06 05:37:17;;;;;;;;;9.00;8.00;;;;;24.29;100.00;98851.88;6007130;29;96302;-62
2023/07/06 05:40:40;;;;;;;;;10.60;8.80;;;;;24.14;100.00;98856.56;6009654;29;96485;-62
2023/07/06 05:43:43;;;;;;;;;9.40;7.40;;;;;24.18;100.00;98862.31;6011747;29;96503;-62
2023/07/06 05:46:46;;;;;;;;;7.00;6.40;;;;;24.15;100.00;98871.16;5996038;29;96498;-61
2023/07/06 05:49:50;;;;;;;;;8.50;8.00;;;;;24.26;100.00;98883.59;6015030;28;98474;-62
2023/07/06 05:52:53;;;;;;;;;6.00;6.00;;;;;24.09;100.00;98888.94;6018500;29;96976;-62
2023/07/06 05:55:58;;;;;;;;;8.00;7.00;;;;;24.14;100.00;98878.59;6010774;29;96861;-61
2023/07/06 05:59:01;;;;;;;;;7.00;7.00;;;;;24.15;100.00;98877.47;6018247;29;96824;-61
2023/07/06 06:02:05;;;;;;;;;10.00;8.00;;;;;24.14;100.00;98884.09;6017885;29;97084;-62
2023/07/06 06:05:09;;;;;;;;;7.00;6.40;;;;;24.06;100.00;98887.59;6014797;29;96614;-61
2023/07/06 06:08:12;;;;;;;;;8.80;7.80;;;;;24.08;100.00;98885.38;6016511;29;96626;-62
2023/07/06 06:11:16;;;;;;;;;8.00;7.00;;;;;24.08;100.00;98895.56;6017566;29;96417;-62
2023/07/06 06:14:20;;;;;;;;;8.20;7.60;;;;;24.04;100.00;98903.59;6018349;29;96787;-62
2023/07/06 06:17:27;;;;;;;;;10.00;9.00;;;;;24.11;100.00;98892.19;6019050;28;96606;-62
2023/07/06 06:20:31;;;;;;;;;9.25;8.00;;;;;24.05;100.00;98894.22;6016982;29;96585;-62
2023/07/06 06:23:34;;;;;;;;;9.60;8.60;;;;;24.08;100.00;98896.38;6017948;28;96857;-62
2023/07/06 06:26:42;;;;;;;;;9.40;9.00;;;;;24.06;100.00;98906.06;6020242;29;96330;-62
2023/07/06 06:29:45;;;;;;;;;7.00;7.00;;;;;24.02;100.00;98908.63;6021562;29;96917;-62
2023/07/06 06:32:49;;;;;;;;;8.00;7.00;;;;;23.89;100.00;98911.41;6023108;29;96535;-62
2023/07/06 06:35:52;;;;;;;;;9.00;8.60;;;;;23.81;100.00;98918.44;6020894;28;96982;-62
2023/07/06 06:38:55;;;;;;;;;8.00;7.25;;;;;23.80;100.00;98914.03;6003499;29;96861;-62
2023/07/06 06:42:00;;;;;;;;;9.00;9.00;;;;;23.76;100.00;98913.03;6019737;29;98634;-62
2023/07/06 06:45:04;;;;;;;;;8.00;7.00;;;;;23.71;100.00;98922.22;6022320;28;97087;-62
2023/07/06 06:48:08;;;;;;;;;8.00;8.00;;;;;23.77;100.00;98924.88;6004857;29;98804;-63
2023/07/06 06:51:12;;;;;;;;;7.00;6.00;;;;;23.73;100.00;98928.25;6012802;29;96984;-62
2023/07/06 06:54:15;;;;;;;;;7.00;7.00;;;;;23.73;100.00;98931.00;6011156;29;96818;-62
2023/07/06 06:57:20;;;;;;;;;8.00;7.00;;;;;23.82;100.00;98936.59;6020905;29;96839;-61
2023/07/06 07:00:23;;;;;;;;;7.00;6.50;;;;;23.90;100.00;98930.34;6020744;29;96829;-62
2023/07/06 07:03:27;;;;;;;;;7.00;7.00;;;;;23.85;100.00;98911.19;6020839;29;96302;-62
2023/07/06 07:06:31;;;;;;;;;7.00;6.00;;;;;23.92;100.00;98932.81;6020523;28;96793;-62
2023/07/06 07:09:34;;;;;;;;;8.00;7.60;;;;;23.91;100.00;98933.94;6019686;29;96592;-62
2023/07/06 07:12:40;;;;;;;;;7.00;6.00;;;;;23.93;100.00;98918.75;6003320;29;97309;-62
2023/07/06 07:15:45;;;;;;;;;9.00;8.00;;;;;24.15;100.00;98934.50;6019067;29;96534;-62
2023/07/06 07:18:48;;;;;;;;;8.00;7.00;;;;;24.21;100.00;98941.56;6021078;29;97096;-62
2023/07/06 07:21:52;;;;;;;;;9.60;8.60;;;;;24.06;100.00;98939.94;6021889;29;96344;-63
2023/07/06 07:24:55;;;;;;;;;9.00;7.75;;;;;24.02;100.00;98944.44;6020944;28;96408;-62
2023/07/06 07:28:00;;;;;;;;;9.20;9.20;;;;;23.89;100.00;98947.22;6021565;29;96433;-62
2023/07/06 07:31:03;;;;;;;;;7.00;7.00;;;;;23.92;100.00;98954.84;6004840;29;96334;-62
2023/07/06 07:34:06;;;;;;;;;7.60;7.60;;;;;23.87;100.00;98957.69;6021611;29;96458;-63
2023/07/06 07:37:14;;;;;;;;;8.00;7.00;;;;;23.77;100.00;98957.91;6021681;29;96320;-62
2023/07/06 07:40:19;;;;;;;;;10.00;8.20;;;;;23.74;100.00;98965.66;6021408;29;96710;-62
2023/07/06 07:43:27;;;;;;;;;6.75;6.00;;;;;23.75;100.00;98950.75;6021657;29;96571;-62
2023/07/06 07:46:30;;;;;;;;;7.20;7.00;;;;;23.84;100.00;98967.41;6021678;29;96872;-62
2023/07/06 07:49:35;;;;;;;;;8.40;7.40;;;;;23.78;100.00;98963.13;6021268;29;96531;-62
2023/07/06 07:52:39;;;;;;;;;10.00;9.60;;;;;23.86;100.00;98972.59;6020178;29;96380;-62
2023/07/06 07:55:42;;;;;;;;;9.00;8.00;;;;;23.85;100.00;98966.25;6019616;29;99024;-62
2023/07/06 07:58:48;;;;;;;;;8.40;7.00;;;;;23.81;100.00;98976.25;6021342;29;96461;-62
2023/07/06 08:01:51;;;;;;;;;7.00;7.00;;;;;23.73;100.00;98965.97;6021554;29;96460;-62
2023/07/06 08:04:57;;;;;;;;;10.60;10.60;;;;;23.67;100.00;98968.00;6020989;29;96483;-62
2023/07/06 08:08:00;;;;;;;;;8.80;7.00;;;;;23.79;100.00;98961.19;6021138;29;97080;-62
2023/07/06 08:11:05;;;;;;;;;9.00;8.50;;;;;23.83;100.00;98960.25;6036797;28;97278;-62
2023/07/06 08:14:09;;;;;;;;;9.00;8.00;;;;;23.93;100.00;98964.75;6023427;28;99140;-62
2023/07/06 08:17:14;;;;;;;;;9.60;8.00;;;;;23.90;100.00;98963.41;6018095;29;97776;-62
2023/07/06 08:20:17;;;;;;;;;9.00;8.00;;;;;23.90;100.00;98963.41;5986280;29;96841;-62
2023/07/06 08:23:47;;;;;;;;;8.00;7.40;;;;;23.86;100.00;98976.16;6018124;28;96386;-62
2023/07/06 08:26:51;;;;;;;;;7.00;6.50;;;;;23.83;100.00;98975.97;6017827;29;96807;-62
2023/07/06 08:29:55;;;;;;;;;8.20;7.00;;;;;23.89;100.00;98980.25;6018291;29;96680;-62
2023/07/06 08:33:00;;;;;;;;;9.40;9.40;;;;;23.91;100.00;98966.97;6015726;29;96675;-62
2023/07/06 08:36:05;;;;;;;;;6.00;6.00;;;;;23.93;100.00;98973.81;6019120;29;96746;-62
2023/07/06 08:39:08;;;;;;;;;8.75;8.00;;;;;23.88;100.00;98965.66;6017143;29;96672;-62
2023/07/06 08:42:18;;;;;;;;;7.60;7.00;;;;;23.77;100.00;98961.47;6019413;29;96497;-62
2023/07/06 08:45:29;;;;;;;;;7.50;6.00;;;;;23.74;100.00;98945.59;6002971;29;96350;-62
2023/07/06 08:48:36;;;;;;;;;7.33;7.00;;;;;24.07;100.00;98969.09;6017558;29;96533;-62
2023/07/06 08:51:40;;;;;;;;;6.80;6.80;;;;;24.28;100.00;98976.97;6019684;29;96377;-62
2023/07/06 08:54:52;;;;;;;;;8.60;7.60;;;;;24.40;100.00;98974.47;6002027;29;96777;-62
2023/07/06 08:57:56;;;;;;;;;6.00;6.00;;;;;24.58;100.00;98987.31;6016676;29;96766;-62
2023/07/06 09:01:07;;;;;;;;;7.00;7.00;;;;;24.69;100.00;98985.09;6019319;29;96348;-62
2023/07/06 09:04:16;;;;;;;;;7.20;6.00;;;;;24.77;100.00;98993.47;6002587;29;98566;-62
2023/07/06 09:07:22;;;;;;;;;7.50;7.00;;;;;24.91;100.00;98991.50;6017678;29;96477;-62
2023/07/06 09:10:29;;;;;;;;;7.00;6.00;;;;;24.94;100.00;98988.09;6018549;29;96834;-61
2023/07/06 09:13:43;;;;;;;;;9.00;7.00;;;;;25.17;100.00;98988.13;6019302;29;96308;-62
2023/07/06 09:16:55;;;;;;;;;7.20;7.20;;;;;25.38;100.00;98992.78;6018156;29;96448;-62
2023/07/06 09:19:59;;;;;;;;;7.00;7.00;;;;;25.75;100.00;98997.06;6003373;29;98583;-63
2023/07/06 09:23:05;;;;;;;;;7.00;6.00;;;;;26.10;100.00;98975.88;6019978;29;97034;-62
2023/07/06 09:26:20;;;;;;;;;8.00;5.40;;;;;26.62;100.00;98998.94;6002425;29;96856;-62
2023/07/06 09:29:37;;;;;;;;;11.40;9.00;;;;;26.85;100.00;98999.56;6024711;28;96587;-63
2023/07/06 09:32:44;;;;;;;;;6.60;5.60;;;;;27.19;100.00;98996.00;6042274;28;96416;-63
2023/07/06 09:35:52;;;;;;;;;5.40;5.40;;;;;27.43;100.00;98999.03;6043375;28;96329;-63
2023/07/06 09:39:03;;;;;;;;;6.00;5.20;;;;;27.74;100.00;98998.00;6025910;28;97506;-63
2023/07/06 09:42:10;;;;;;;;;4.40;4.00;;;;;28.06;100.00;98997.34;6042502;28;96429;-63
2023/07/06 09:45:34;;;;;;;;;6.00;5.60;;;;;28.31;100.00;98992.84;6041856;28;97730;-63
2023/07/06 09:48:40;;;;;;;;;5.60;5.00;;;;;28.43;100.00;98996.53;6043180;28;96927;-62
2023/07/06 09:51:50;;;;;;;;;6.00;6.00;;;;;28.56;100.00;98996.59;6041495;28;96788;-63
2023/07/06 09:55:00;;;;;;;;;6.80;6.00;;;;;28.66;95.01;98985.09;6042960;28;96613;-63
2023/07/06 09:58:10;;;;;;;;;5.00;4.25;;;;;28.76;90.38;98995.81;6042054;28;96708;-63
2023/07/06 10:01:23;;;;;;;;;4.00;4.00;;;;;28.77;87.72;98989.94;6043979;28;96991;-63
2023/07/06 10:04:47;;;;;;;;;5.00;4.20;;;;;28.68;89.96;98994.72;6029918;28;96540;-62
2023/07/06 10:07:55;;;;;;;;;5.20;5.00;;;;;28.60;87.86;99000.28;6046271;28;96425;-62
2023/07/06 10:11:09;;;;;;;;;4.50;4.00;;;;;28.50;90.67;98992.38;6029303;28;96903;-63
2023/07/06 10:14:23;;;;;;;;;6.00;6.00;;;;;28.37;89.42;98994.28;6045693;28;96545;-62
2023/07/06 10:17:35;;;;;;;;;5.33;4.33;;;;;28.08;89.38;98977.63;6046409;28;96936;-61
2023/07/06 10:20:51;;;;;;;;;4.00;3.80;;;;;28.09;89.60;98993.94;6046693;28;96487;-62
2023/07/06 10:24:03;;;;;;;;;5.50;5.00;;;;;28.14;94.47;98984.63;6046081;28;96563;-62
2023/07/06 10:27:14;;;;;;;;;5.00;5.00;;;;;28.12;86.90;98995.22;6045586;28;96795;-62
2023/07/06 10:30:25;;;;;;;;;6.40;6.00;;;;;27.68;85.34;98925.34;6046695;28;96551;-62
2023/07/06 10:33:37;;;;;;;;;5.00;4.50;;;;;28.08;83.43;98997.03;6028787;28;98762;-62
2023/07/06 10:36:44;;;;;;;;;6.00;5.80;;;;;28.00;86.52;98993.94;6046628;28;96298;-62
2023/07/06 10:39:59;;;;;;;;;5.00;4.75;;;;;28.01;89.60;98992.81;6036760;28;96964;-62
2023/07/06 10:43:17;;;;;;;;;5.00;5.00;;;;;28.00;88.08;98999.50;6031882;28;96566;-62
2023/07/06 10:46:31;;;;;;;;;6.80;5.80;;;;;27.96;91.86;99004.06;6028932;28;97130;-63
2023/07/06 10:50:12;;;;;;;;;7.00;7.00;;;;;27.92;88.75;98999.53;6035788;28;96279;-63
2023/07/06 10:53:25;;;;;;;;;10.00;9.00;;;;;28.04;88.78;98987.75;6005391;28;96929;-62
2023/07/06 10:56:30;;;;;;;;;8.00;8.00;;;;;28.07;85.84;98956.59;6020618;29;99728;-63
2023/07/06 10:59:38;;;;;;;;;8.00;7.40;;;;;28.31;83.80;99001.97;6022599;29;96286;-63
2023/07/06 11:02:45;;;;;;;;;6.00;6.00;;;;;28.27;84.06;99006.56;6023092;29;97029;-63
2023/07/06 11:05:58;;;;;;;;;6.80;6.20;;;;;28.06;84.87;98979.91;6005869;29;96841;-62
2023/07/06 11:09:13;;;;;;;;;7.00;7.00;;;;;28.24;88.60;99015.56;6023153;29;96314;-63
2023/07/06 11:12:20;;;;;;;;;9.00;9.00;;;;;28.22;87.97;99017.03;6005122;28;96553;-63
2023/07/06 11:15:26;;;;;;;;;9.00;8.00;;;;;28.16;86.38;99015.59;6005087;29;96966;-63
2023/07/06 11:18:36;;;;;;;;;10.20;10.00;;;;;28.00;91.08;98988.41;6022401;29;97112;-62
2023/07/06 11:21:43;;;;;;;;;8.60;7.60;;;;;28.19;88.12;99012.97;6019530;29;96976;-62
2023/07/06 11:24:50;;;;;;;;;8.00;8.00;;;;;28.30;83.04;99008.66;6021840;29;96793;-62
2023/07/06 11:27:59;;;;;;;;;9.00;8.00;;;;;28.36;82.43;99001.78;6020171;29;96708;-63
2023/07/06 11:31:29;;;;;;;;;6.75;6.75;;;;;28.48;79.84;99008.56;6022324;29;96422;-63
2023/07/06 11:34:43;;;;;;;;;9.00;9.00;;;;;28.84;82.51;99012.38;6019606;29;97752;-62
2023/07/06 11:38:00;;;;;;;;;7.00;7.00;;;;;29.03;78.59;99017.44;6010873;28;96222;-62
2023/07/06 11:41:26;;;;;;;;;8.40;8.00;;;;;29.15;78.04;99022.25;6023232;28;96404;-62
2023/07/06 11:44:41;;;;;;;;;7.00;6.60;;;;;29.34;78.53;99027.31;6021563;29;96605;-63
2023/07/06 11:47:58;;;;;;;;;6.00;4.50;;;;;29.25;72.65;99025.41;6021218;29;96378;-62
2023/07/06 11:51:02;;;;;;;;;7.60;6.60;;;;;29.30;76.76;99029.94;6021110;29;96900;-62
2023/07/06 11:54:19;;;;;;;;;8.00;8.00;;;;;29.07;74.38;99031.47;6003783;29;97134;-62
2023/07/06 11:57:28;;;;;;;;;7.50;7.00;;;;;28.97;78.30;99035.47;6020856;29;96492;-62
2023/07/06 12:00:48;;;;;;;;;7.60;7.60;;;;;28.90;75.57;99028.81;6033255;28;96342;-62
2023/07/06 12:03:59;;;;;;;;;7.00;6.60;;;;;28.64;75.08;99031.75;5996539;29;97228;-62
2023/07/06 12:07:08;;;;;;;;;7.25;6.75;;;;;28.41;78.69;99021.00;6020818;28;96329;-63
2023/07/06 12:10:14;;;;;;;;;7.60;6.60;;;;;28.43;77.83;99018.72;6008900;29;96345;-62
2023/07/06 12:13:25;;;;;;;;;6.60;6.00;;;;;28.44;74.19;99022.28;6013256;28;98565;-62
2023/07/06 12:16:33;;;;;;;;;6.80;6.00;;;;;28.36;75.64;99017.59;6030005;28;96358;-62
2023/07/06 12:19:41;;;;;;;;;7.00;7.00;;;;;28.33;77.11;99015.50;6030897;28;97186;-62
2023/07/06 12:22:56;;;;;;;;;7.00;7.00;;;;;28.28;78.88;99019.28;6005330;29;97822;-62
2023/07/06 12:26:00;;;;;;;;;6.00;6.00;;;;;28.21;76.95;99020.94;6019644;29;96340;-63
2023/07/06 12:29:05;;;;;;;;;7.00;7.00;;;;;28.07;75.71;99009.25;6020144;29;96406;-62
2023/07/06 12:32:15;;;;;;;;;7.00;7.00;;;;;28.11;76.04;99021.28;6017866;29;97080;-62
2023/07/06 12:35:28;;;;;;;;;6.00;6.00;;;;;27.97;75.13;99015.97;6018533;29;96541;-63
2023/07/06 12:38:35;;;;;;;;;9.00;8.00;;;;;27.43;75.57;98970.53;6018417;29;96845;-62
2023/07/06 12:41:38;;;;;;;;;4.00;4.00;;;;;27.60;76.34;99005.72;6007179;29;97345;-62
2023/07/06 12:44:44;;;;;;;;;7.00;5.25;;;;;27.55;79.63;99006.69;6007350;29;97187;-62
2023/07/06 12:47:56;;;;;;;;;5.00;5.00;;;;;27.42;79.24;99002.94;6019717;29;96927;-62
2023/07/06 12:51:09;;;;;;;;;4.80;4.80;;;;;27.42;80.34;99007.66;6019133;29;96441;-63
2023/07/06 12:54:12;;;;;;;;;6.00;5.00;;;;;27.44;78.68;99017.28;6018659;29;96512;-62
2023/07/06 12:57:22;;;;;;;;;6.00;6.00;;;;;27.37;79.53;99008.66;6006241;29;97099;-63
2023/07/06 13:00:27;;;;;;;;;6.20;6.20;;;;;27.38;83.22;99010.28;6019113;29;96813;-62
2023/07/06 13:03:46;;;;;;;;;8.00;6.75;;;;;27.39;84.66;99020.22;6018882;28;96667;-62
2023/07/06 13:06:52;;;;;;;;;7.00;7.00;;;;;27.45;86.44;99010.59;6018707;29;96621;-62
2023/07/06 13:09:56;;;;;;;;;6.00;5.75;;;;;27.51;86.77;99014.06;6019922;29;96436;-62
2023/07/06 13:13:00;;;;;;;;;5.20;5.00;;;;;27.61;81.65;99007.34;6019164;29;97429;-62
2023/07/06 13:16:09;;;;;;;;;6.00;5.00;;;;;27.83;86.38;99010.66;6018616;29;96317;-63
2023/07/06 13:19:15;;;;;;;;;5.00;5.00;;;;;28.06;82.46;99002.88;6018287;29;98483;-63
2023/07/06 13:22:20;;;;;;;;;6.00;6.00;;;;;28.28;76.71;99001.84;6019040;28;96412;-63
2023/07/06 13:25:24;;;;;;;;;6.00;6.00;;;;;28.33;76.00;99007.19;6017877;28;97226;-63
2023/07/06 13:28:29;;;;;;;;;5.00;5.00;;;;;28.41;73.92;99001.56;6020104;29;96568;-62
2023/07/06 13:31:33;;;;;;;;;9.60;8.00;;;;;28.43;73.53;98987.38;6016084;29;96654;-62
2023/07/06 13:34:55;;;;;;;;;7.00;6.00;;;;;28.35;74.06;98985.47;6010373;29;98049;-63
2023/07/06 13:38:03;;;;;;;;;5.40;5.00;;;;;28.30;74.90;98991.19;6017714;29;96894;-62
2023/07/06 13:41:11;;;;;;;;;5.40;5.00;;;;;28.21;73.13;98988.50;6018609;29;96684;-62
2023/07/06 13:44:14;;;;;;;;;6.60;6.00;;;;;28.19;75.18;98974.16;6019849;29;96317;-63
2023/07/06 13:47:20;;;;;;;;;7.20;6.80;;;;;28.34;73.72;98981.09;6017734;29;98793;-63
2023/07/06 13:50:25;;;;;;;;;7.25;7.25;;;;;28.47;70.91;98977.25;6000356;28;98267;-63
2023/07/06 13:53:28;;;;;;;;;5.80;5.00;;;;;28.58;70.80;98977.66;6014898;29;96442;-63
2023/07/06 13:56:33;;;;;;;;;6.00;5.80;;;;;28.43;72.24;98965.19;6002457;28;96907;-66
2023/07/06 13:59:36;;;;;;;;;6.00;5.25;;;;;28.53;73.64;98986.16;5991275;29;98520;-65
2023/07/06 14:02:44;;;;;;;;;5.00;5.00;;;;;28.47;70.44;98982.78;6019261;29;96595;-66
2023/07/06 14:05:48;;;;;;;;;6.00;6.00;;;;;28.36;67.30;98987.09;6006883;29;96985;-65
2023/07/06 14:08:51;;;;;;;;;7.00;6.50;;;;;28.25;66.15;99000.53;5979918;29;96766;-65
2023/07/06 14:11:55;;;;;;;;;8.40;8.00;;;;;28.22;69.43;99005.94;6005884;29;96492;-65
2023/07/06 14:14:59;;;;;;;;;6.75;6.75;;;;;28.20;67.61;99008.25;6016049;29;96482;-65
2023/07/06 14:18:07;;;;;;;;;4.50;4.50;;;;;28.16;68.62;98999.78;6017474;29;96576;-65
2023/07/06 14:21:13;;;;;;;;;9.00;8.00;;;;;28.16;68.24;98997.00;6014218;29;96588;-65
2023/07/06 14:24:20;;;;;;;;;6.00;6.00;;;;;28.20;67.97;99006.25;5996606;29;96402;-65
2023/07/06 14:27:25;;;;;;;;;8.00;7.50;;;;;28.08;66.44;99003.38;6017932;29;96770;-65
2023/07/06 14:30:30;;;;;;;;;7.40;6.40;;;;;28.11;67.33;99005.50;5999586;28;96875;-64